EST,Max TemperatureF,Mean TemperatureF,Min TemperatureF,Max Dew PointF,MeanDew PointF,Min DewpointF,Max Humidity, Mean Humidity, Min Humidity, Max Sea Level PressureIn, Mean Sea Level PressureIn, Min Sea Level PressureIn, Max VisibilityMiles, Mean VisibilityMiles, Min VisibilityMiles, Max Wind SpeedMPH, Mean Wind SpeedMPH, Max Gust SpeedMPH,PrecipitationIn, CloudCover, Events, WindDirDegrees
2013-2-1,19,14,8,10,7,1,79,70,54,30.22,29.87,29.63,10,4,0,29,14,41,0.01,7,Snow,279
2013-2-2,16,11,6,10,5,-1,80,71,62,30.22,30.00,29.88,10,5,2,15,10,23,0.00,7,Snow,216
2013-2-3,21,16,12,16,11,7,88,77,63,29.96,29.76,29.66,10,4,0,15,4,26,0.02,8,Snow,260
2013-2-4,18,15,12,14,8,5,88,75,57,29.97,29.85,29.76,10,4,0,18,9,31,0.01,8,Snow,275
2013-2-5,25,18,12,19,15,10,88,80,65,29.93,29.82,29.73,10,7,2,9,2,,0.00,8,Snow,246
2013-2-6,24,20,12,20,13,7,93,71,48,30.37,30.09,29.80,10,7,1,20,10,26,0.00,5,Rain-Snow,299
2013-2-7,34,22,10,18,13,6,84,65,48,30.39,30.27,30.08,10,10,10,17,6,29,0.00,5,,146
2013-2-8,34,24,15,30,24,10,89,81,64,30.05,29.81,29.68,10,4,1,24,14,32,0.05,8,Snow,227
2013-2-9,19,14,10,12,9,7,85,78,68,30.42,30.21,29.96,10,5,1,18,13,28,0.00,6,Snow,323
2013-2-10,43,24,6,16,9,1,87,55,24,30.41,30.28,30.06,10,10,10,15,4,25,0.00,3,,148
2013-2-11,48,40,30,37,30,15,89,75,46,30.01,29.75,29.60,10,9,2,18,13,30,0.00,8,Rain-Snow,213
2013-2-12,30,28,26,23,20,19,78,72,69,29.99,29.91,29.77,10,10,6,24,16,36,0.00,8,Snow,280
2013-2-13,39,33,25,21,20,19,78,64,48,29.92,29.80,29.69,10,10,10,10,5,,0.00,4,,301
2013-2-14,37,29,21,30,26,18,88,81,59,29.94,29.83,29.76,10,5,1,20,8,34,0.05,7,Snow,212
2013-2-15,36,30,21,30,22,13,86,72,56,30.04,29.91,29.77,10,8,0,16,12,33,0.00,7,Fog-Snow,270
2013-2-16,25,20,12,13,9,5,81,64,45,30.04,29.97,29.86,10,10,2,13,7,20,0.00,6,Snow,314
2013-2-17,16,12,8,10,5,-2,80,70,53,30.18,29.90,29.77,10,6,0,26,13,34,0.00,7,Snow,316
2013-2-18,32,19,6,14,5,1,80,62,32,30.29,30.16,29.99,10,10,10,21,12,29,0.00,3,,266
2013-2-19,36,28,19,32,25,11,89,77,44,29.97,29.67,29.53,10,4,0,22,12,34,0.16,7,Fog-Rain-Snow,214
2013-2-20,19,16,14,12,8,6,79,69,58,30.09,29.86,29.71,10,3,0,32,16,41,0.00,8,Snow,281
2013-2-21,19,17,15,12,9,7,88,73,63,30.40,30.16,29.95,10,6,2,23,17,36,0.00,8,Snow,316
2013-2-22,30,23,16,22,18,12,88,78,54,30.38,30.17,30.01,10,9,1,25,11,36,0.00,7,Snow,149
2013-2-23,34,30,26,29,26,21,93,85,75,30.07,29.91,29.81,10,6,0,13,9,22,0.01,8,Fog,189
2013-2-24,28,26,24,25,19,16,93,76,63,30.09,29.89,29.79,10,6,1,20,10,30,0.00,8,Snow,295
2013-2-25,32,28,23,20,18,16,81,69,55,30.24,30.19,30.11,10,10,10,17,8,,0.00,5,,348
2013-2-26,36,28,21,30,25,17,93,80,57,30.21,29.92,29.69,10,6,0,22,13,32,0.40,5,Fog-Rain-Snow,128
2013-2-27,35,32,30,32,30,27,93,87,81,29.71,29.57,29.52,10,5,0,20,10,28,0.26,8,Fog-Rain-Snow,223
2013-2-28,33,32,30,30,27,25,88,82,70,29.71,29.55,29.50,10,4,0,14,7,29,0.11,8,Fog-Rain-Snow,263